NLSK1: Solomon River, Niles, KS

                                SHEF ID:       NLSK1     SOLOMON R AT NILES, KS
STATION TYPE:

PRECIP STAGE RIV-FLOW BAT-LOAD
in ft cfs volt
Ccp-Rev Ccp-Rev Ccp-Rev Ccp-Rev
(America/Chicago)
07/29 00:00 0.00 7.31 489 11.72
07/29 01:00 0.00 7.26 481 11.75
07/29 02:00 0.00 7.21 473 11.72
07/29 03:00 0.00 7.16 464 11.70
07/29 04:00 0.00 7.11 456 11.68
07/29 05:00 0.00 7.07 450 11.68
07/29 06:00 0.00 7.03 443 11.64
07/29 07:00 0.00 6.98 436 11.61
07/29 08:00 0.00 6.94 429 11.60
07/29 09:00 0.00 6.90 423 11.61
07/29 10:00 0.00 6.86 417 11.73
07/29 11:00 0.00 6.83 412 12.29
07/29 12:00 0.00 6.79 406 12.23
07/29 13:00 0.00 6.75 400 11.92
07/29 14:00 0.00 6.71 394 11.88
07/29 15:00 0.00 6.68 389 11.81
07/29 16:00 0.00 6.64 383 11.79
07/29 17:00 0.00 6.61 379 11.76
07/29 18:00 0.00 6.58 374 11.71
07/29 19:00 0.00 6.54 368 11.66
07/29 20:00 0.00 6.51 364 11.65
07/29 21:00 0.00 6.48 359 11.60
07/29 22:00 0.00 6.45 355 11.59
07/29 23:00 0.00 6.43 352 11.58
Data processed at Thu 30Jul2026 04:41 GMT

NOTICE: If you are parsing this page

Please convert to using our Data API. Starting early 2026 we will be migrating to: https://water.usace.army.mil with modern pages rendered in JavaScript. When this migration completes you will no longer be able to scrape this page! CWMSDataAPI (CDA)

Timeseries IDs (TSIDs)

TSIDs used from left to right in the data table
NLSK.Precip-Inc.Total.1Hour.1Hour.Ccp-Rev
NLSK.Stage.Inst.1Hour.0.Ccp-Rev
NLSK.Flow.Inst.1Hour.0.Ccp-Rev
NLSK.Volt-Battery Load.Inst.1Hour.0.Ccp-Rev

                            

All information presented herein is the property of the government of the United States of America and may be revised or deleted at any time without prior notice. Dissemination of this information without the expressed written consent of the Public Affairs Office, Tulsa District U.S. Army Corps of Engineers is strictly prohibited. These data are gathered electronically and, as presented, have NOT undergone any form of quality control. These data are NOT guaranteed to be valid or correct.